Coldwater, Kansas
Current Conditions -  °F | °C
As of 10:35 AM on Saturday 25 Oct 2014 (Local Time) from KPTT Reporting Station
Clear Clear  
Wind Chill: 68°   Ceiling: Unl
Heat Index: 68°   Visibility: 10mi
Dew Point: 55°   Wind: 0mph
Humidity: 64%   Direction: NA
Pressure: 30.1"   Gusts: NA
Location:  37.27°N, 99.33°W
Report Text: KPTT 251535Z AUTO 00000KT 10SM CLR 20/13 A3010 RMK AO2
Loading
Personal Weather Stations






























Interactive Weather Map
Tropical Storm Tracking
New forecast layout! Learn more

10-Day Weather Forecast

Advertisements
Track Severe Weather on mobile